createdAt,value
2022-08-20T00:15:39.801Z,19.9
2022-08-20T00:25:42.421Z,20
2022-08-20T00:35:44.696Z,20.1
2022-08-20T00:45:46.898Z,20.3
2022-08-20T00:55:49.090Z,19.8
2022-08-20T01:05:51.491Z,19.4
2022-08-20T01:15:53.427Z,19.4
2022-08-20T01:25:56.058Z,19.3
2022-08-20T01:35:57.963Z,19.3
2022-08-20T01:46:00.074Z,19.2
2022-08-20T01:56:02.067Z,19.2
2022-08-20T04:06:30.008Z,18.5
2022-08-20T04:16:31.654Z,18.7
2022-08-20T04:26:33.676Z,18.5
2022-08-20T04:36:36.163Z,18.5
2022-08-20T04:46:38.415Z,18.4
2022-08-20T04:56:40.534Z,18.4
2022-08-20T05:06:42.385Z,18.4
2022-08-20T05:16:44.801Z,18.5
2022-08-20T05:26:46.611Z,18.6
2022-08-20T05:36:49.490Z,18.6
2022-08-20T05:46:51.158Z,18.7
2022-08-20T05:56:53.406Z,18.8
2022-08-20T06:06:56.038Z,18.9
2022-08-20T06:16:59.099Z,19
2022-08-20T06:27:00.426Z,18.9
2022-08-20T06:37:03.004Z,19.1
2022-08-20T06:47:05.630Z,19.3
2022-08-20T06:57:08.226Z,19.5
2022-08-20T07:17:13.226Z,19.6
2022-08-20T08:27:27.015Z,20.7
2022-08-20T08:37:30.757Z,21.7
2022-08-20T08:47:31.347Z,21.1
2022-08-20T08:57:33.937Z,21.3
2022-08-20T09:07:36.457Z,22
2022-08-20T09:17:38.701Z,22
2022-08-20T09:27:41.529Z,22.5
2022-08-20T09:37:43.145Z,22.6
2022-08-20T09:47:54.870Z,22.9
2022-08-20T09:57:47.595Z,22.5
2022-08-20T10:07:49.846Z,22
2022-08-20T10:17:52.257Z,23.1
2022-08-20T10:27:54.540Z,22.7
2022-08-20T10:37:57.023Z,22.5
2022-08-20T10:47:59.185Z,23.3
2022-08-20T10:58:01.781Z,24.1
2022-08-20T11:08:04.742Z,23.4
2022-08-20T11:18:06.216Z,22.7
2022-08-20T11:28:08.678Z,22.7
2022-08-20T11:38:10.340Z,23.5
2022-08-20T11:48:12.562Z,23.8
2022-08-20T11:58:15.131Z,22.8
2022-08-20T11:58:37.063Z,22.9
2022-08-20T12:08:25.020Z,23.1
2022-08-20T12:18:27.029Z,22.9
2022-08-20T12:28:28.888Z,22.7
2022-08-20T12:38:30.996Z,22.4
2022-08-20T12:48:33.098Z,22.3
2022-08-20T13:08:38.339Z,23.4
2022-08-20T13:18:40.794Z,22.9
2022-08-20T13:38:45.357Z,24
2022-08-20T13:48:47.353Z,24.4
2022-08-20T14:08:52.048Z,25
2022-08-20T14:18:54.651Z,24.5
2022-08-20T14:28:56.518Z,24.5
2022-08-20T14:38:58.589Z,24.6
2022-08-20T14:49:00.563Z,24.4
2022-08-20T15:09:04.638Z,23.7
2022-08-20T15:19:07.243Z,23.8
2022-08-20T15:29:09.385Z,24.1
2022-08-20T15:39:11.752Z,23.9
2022-08-20T15:49:13.737Z,23.8
2022-08-20T15:59:16.363Z,24
2022-08-20T16:09:18.464Z,24.2
2022-08-20T16:29:22.685Z,23.9
2022-08-20T16:39:25.186Z,23.7
2022-08-20T16:49:27.529Z,23.6
2022-08-20T16:59:29.523Z,23.6
2022-08-20T17:09:31.176Z,23.6
2022-08-20T17:19:33.747Z,23.5
2022-08-20T17:29:35.795Z,23.4
2022-08-20T18:39:51.769Z,21.9
2022-08-20T18:49:53.652Z,21.7
2022-08-20T18:59:55.317Z,21.7
2022-08-20T20:10:09.815Z,20.6
2022-08-20T20:30:14.144Z,20
2022-08-20T20:50:18.191Z,19.3
2022-08-20T21:50:31.286Z,18.9
2022-08-20T22:20:37.099Z,18.3
2022-08-20T22:40:41.987Z,17.6
2022-08-20T23:00:47.296Z,17.1
2022-08-20T23:10:49.693Z,17.1
2022-08-20T23:20:51.982Z,16.7
2022-08-20T23:30:54.279Z,16.5
2022-08-20T23:40:56.830Z,16.6
2022-08-20T23:50:58.752Z,16.6
